Time;durP1;ratioP1;P1;durP2;ratioP2;P2;SDS_P1;SDS_P2;PMS_P1;PMS_P2;Temp;Humidity;BMP_temperature;BMP_pressure;BME280_temperature;BME280_humidity;BME280_pressure;Samples;Min_cycle;Max_cycle;Signal;HPM_P1;HPM_P2
2021/12/06 00:01:39;;;;;;;;;;;;;;;2.27;100.00;101084.50;5108838;28;20488;-78
2021/12/06 00:04:18;;;;;;;9.00;2.05;;;;;;;2.17;100.00;101075.53;5108074;28;19908;-78
2021/12/06 00:06:50;;;;;;;8.32;1.92;;;;;;;2.04;100.00;101071.06;5109213;28;20039;-78
2021/12/06 00:09:19;;;;;;;4.00;1.85;;;;;;;2.07;100.00;101081.41;5108275;28;20082;-77
2021/12/06 00:11:45;;;;;;;6.03;2.70;;;;;;;2.01;100.00;101087.06;5108040;28;20036;-78
2021/12/06 00:14:11;;;;;;;;;;;;;;;2.03;100.00;101098.34;5109388;28;20531;-78
2021/12/06 00:16:37;;;;;;;8.07;2.58;;;;;;;2.06;100.00;101107.81;5109382;28;19912;-77
2021/12/06 00:19:04;;;;;;;6.95;2.53;;;;;;;2.00;100.00;101106.44;5091202;28;20134;-77
2021/12/06 00:21:30;;;;;;;10.00;2.80;;;;;;;2.01;100.00;101125.72;5108925;28;20042;-77
2021/12/06 00:23:56;;;;;;;6.60;3.20;;;;;;;1.92;100.00;101106.09;5110883;28;20249;-76
2021/12/06 00:26:21;;;;;;;3.17;1.90;;;;;;;1.99;100.00;101123.22;5108066;28;20480;-76
2021/12/06 00:28:49;;;;;;;6.90;2.22;;;;;;;1.96;100.00;101130.44;5108978;28;20360;-77
2021/12/06 00:31:14;;;;;;;7.43;2.80;;;;;;;1.87;100.00;101127.47;5107905;28;20050;-77
2021/12/06 00:33:43;;;;;;;10.50;3.70;;;;;;;1.96;100.00;101143.59;5107700;28;20108;-77
2021/12/06 00:36:16;;;;;;;10.38;2.80;;;;;;;1.93;100.00;101157.81;5109442;28;20039;-77
2021/12/06 00:38:44;;;;;;;9.90;2.80;;;;;;;1.90;100.00;101169.38;5095348;28;20039;-77
2021/12/06 00:41:10;;;;;;;10.45;3.25;;;;;;;1.91;100.00;101170.22;5113004;28;20385;-77
2021/12/06 00:43:36;;;;;;;4.35;2.40;;;;;;;1.83;100.00;101167.25;5113278;28;20030;-77
2021/12/06 00:46:02;;;;;;;8.68;3.50;;;;;;;1.94;100.00;101191.09;5112117;28;20031;-77
2021/12/06 00:48:27;;;;;;;8.20;3.13;;;;;;;1.93;100.00;101202.59;5111967;28;20058;-77
2021/12/06 00:50:53;;;;;;;10.48;3.45;;;;;;;1.90;100.00;101202.78;5111854;28;20039;-77
2021/12/06 00:53:18;;;;;;;6.22;2.97;;;;;;;1.90;100.00;101218.59;5111665;28;20043;-77
2021/12/06 00:55:44;;;;;;;14.75;3.75;;;;;;;1.86;100.00;101214.44;5111585;28;20053;-75
2021/12/06 00:58:11;;;;;;;10.27;2.60;;;;;;;1.94;100.00;101238.50;5111634;28;20035;-74
2021/12/06 01:00:48;;;;;;;12.13;3.38;;;;;;;2.04;100.00;101263.34;5094637;28;20450;-75
2021/12/06 01:03:24;;;;;;;8.52;3.42;;;;;;;2.02;100.00;101265.22;5112684;28;20042;-76
2021/12/06 01:05:49;;;;;;;13.00;3.20;;;;;;;2.05;100.00;101286.09;5094295;28;20272;-74
2021/12/06 01:08:16;;;;;;;6.72;3.50;;;;;;;1.96;100.00;101277.91;5112753;28;20360;-74
2021/12/06 01:10:42;;;;;;;8.23;2.90;;;;;;;1.99;100.00;101291.75;5111543;28;20118;-74
2021/12/06 01:13:08;;;;;;;8.95;3.10;;;;;;;1.94;100.00;101288.53;5111419;28;20168;-74
2021/12/06 01:15:36;;;;;;;8.48;2.78;;;;;;;1.97;100.00;101301.53;5094141;28;20456;-74
2021/12/06 01:18:04;;;;;;;6.63;2.72;;;;;;;1.94;100.00;101293.78;5112592;28;20448;-74
2021/12/06 01:20:38;;;;;;;5.38;3.00;;;;;;;1.86;100.00;101291.63;5111309;28;20023;-74
2021/12/06 01:23:08;;;;;;;9.52;3.17;;;;;;;1.89;100.00;101301.13;5111308;28;20027;-74
2021/12/06 01:41:58;;;;;;;9.10;3.55;;;;;;;2.01;100.00;101405.72;5088462;28;20048;-74
2021/12/06 01:44:30;;;;;;;7.03;3.10;;;;;;;2.03;100.00;101409.13;5110512;28;20035;-74
2021/12/06 01:47:16;;;;;;;8.70;4.40;;;;;;;2.01;100.00;101418.91;5111192;28;20590;-74
2021/12/06 01:49:45;;;;;;;8.85;3.58;;;;;;;2.03;100.00;101413.56;5110620;28;20031;-74
2021/12/06 01:52:15;;;;;;;7.05;3.53;;;;;;;2.01;100.00;101415.44;5111030;28;20460;-75
2021/12/06 01:54:42;;;;;;;7.70;3.78;;;;;;;2.06;100.00;101419.50;5110318;28;20047;-74
2021/12/06 01:57:08;;;;;;;7.90;3.50;;;;;;;1.97;100.00;101400.78;5110574;28;20031;-74
2021/12/06 01:59:34;;;;;;;6.95;3.35;;;;;;;1.89;100.00;101382.75;5127606;27;20360;-75
2021/12/06 02:01:59;;;;;;;9.20;3.30;;;;;;;1.94;100.00;101393.88;5110488;28;20031;-75
2021/12/06 02:04:28;;;;;;;12.02;4.35;;;;;;;1.87;100.00;101387.28;5109996;28;20043;-75
2021/12/06 02:06:55;;;;;;;7.95;3.67;;;;;;;1.82;100.00;101376.16;5110476;28;20019;-75
2021/12/06 02:09:25;;;;;;;10.18;3.97;;;;;;;1.81;100.00;101375.34;5093651;28;20031;-75
2021/12/06 02:11:54;;;;;;;11.57;4.35;;;;;;;1.87;100.00;101389.91;5110513;28;20059;-75
2021/12/06 02:14:44;;;;;;;6.70;4.38;;;;;;;1.84;100.00;101390.94;5109878;28;20035;-75
2021/12/06 02:17:17;;;;;;;10.48;4.15;;;;;;;1.92;100.00;101403.69;5127409;27;20035;-75
2021/12/06 02:19:50;;;;;;;12.65;4.82;;;;;;;1.82;100.00;101384.06;5127225;27;20035;-75
2021/12/06 02:22:20;;;;;;;13.07;5.43;;;;;;;1.71;100.00;101366.28;5110130;28;20036;-75
2021/12/06 02:24:46;;;;;;;9.32;5.05;;;;;;;1.68;100.00;101364.66;5109752;28;20031;-75
2021/12/06 02:27:14;;;;;;;11.27;4.53;;;;;;;1.60;100.00;101353.75;5110938;28;20031;-76
2021/12/06 02:29:42;;;;;;;12.88;4.70;;;;;;;1.56;100.00;101365.38;5109938;28;20141;-76
2021/12/06 02:32:13;;;;;;;10.63;4.63;;;;;;;1.52;100.00;101371.75;5110068;28;20027;-76
2021/12/06 02:34:47;;;;;;;14.23;5.63;;;;;;;1.51;100.00;101382.38;5109724;28;20353;-76
2021/12/06 02:37:15;;;;;;;9.15;5.10;;;;;;;1.53;100.00;101399.78;5110788;28;20031;-76
2021/12/06 02:39:41;;;;;;;11.55;5.90;;;;;;;1.57;100.00;101416.22;5109552;28;20070;-76
2021/12/06 02:42:08;;;;;;;;;;;;;;;1.74;100.00;101431.06;5093606;28;20432;-76
2021/12/06 02:44:34;;;;;;;15.02;5.65;;;;;;;1.68;100.00;101419.94;5091151;28;19912;-76
2021/12/06 02:47:00;;;;;;;18.02;7.53;;;;;;;1.70;100.00;101427.75;5110670;28;20023;-76
2021/12/06 02:49:28;;;;;;;12.70;5.85;;;;;;;1.69;100.00;101411.13;5126583;27;20027;-76
2021/12/06 02:51:53;;;;;;;13.75;7.07;;;;;;;1.64;100.00;101410.53;5092492;28;20035;-76
2021/12/06 02:54:21;;;;;;;16.88;6.75;;;;;;;1.64;100.00;101407.91;5109076;28;20117;-76
2021/12/06 02:56:54;;;;;;;15.52;7.18;;;;;;;1.73;100.00;101421.47;5109353;28;20035;-76
2021/12/06 02:59:24;;;;;;;13.13;6.03;;;;;;;1.81;100.00;101435.88;5092053;28;20126;-76
2021/12/06 03:01:55;;;;;;;14.00;4.90;;;;;;;1.79;100.00;101423.75;5109246;28;20114;-76
2021/12/06 03:04:20;;;;;;;9.40;5.03;;;;;;;1.69;100.00;101395.31;5092017;28;20221;-76
2021/12/06 03:06:48;;;;;;;10.35;4.60;;;;;;;1.73;100.00;101380.19;5092338;28;20051;-76
2021/12/06 03:09:17;;;;;;;10.32;4.38;;;;;;;1.71;100.00;101381.22;5109288;28;20039;-76
2021/12/06 03:11:44;;;;;;;10.75;4.20;;;;;;;1.74;100.00;101371.38;5109155;28;20491;-76
2021/12/06 03:14:15;;;;;;;10.35;4.50;;;;;;;1.65;100.00;101338.53;5108982;28;20090;-77
2021/12/06 03:16:42;;;;;;;14.73;5.32;;;;;;;1.60;100.00;101316.91;5092359;28;20070;-76
2021/12/06 03:19:08;;;;;;;9.63;3.67;;;;;;;1.67;100.00;101317.38;5110041;28;20051;-77
2021/12/06 03:21:35;;;;;;;8.15;3.55;;;;;;;1.64;100.00;101286.00;5109935;28;20027;-76
2021/12/06 03:24:01;;;;;;;7.90;3.67;;;;;;;1.63;100.00;101271.97;5108666;28;20096;-76
2021/12/06 03:26:28;;;;;;;10.60;3.55;;;;;;;1.48;100.00;101243.94;5092029;28;20059;-77
2021/12/06 03:28:55;;;;;;;8.60;4.43;;;;;;;1.41;100.00;101226.84;5091872;28;20459;-76
2021/12/06 03:31:22;;;;;;;11.27;4.78;;;;;;;1.37;100.00;101223.53;5108712;28;20495;-77
2021/12/06 03:33:52;;;;;;;9.23;3.95;;;;;;;1.39;100.00;101218.19;5125633;27;20027;-76
2021/12/06 03:36:19;;;;;;;8.85;4.38;;;;;;;1.24;100.00;101210.25;5107408;28;20039;-77
2021/12/06 03:38:46;;;;;;;6.82;3.72;;;;;;;1.16;100.00;101191.44;5108489;28;20187;-77
2021/12/06 03:41:14;;;;;;;15.50;4.78;;;;;;;1.20;100.00;101200.03;5108369;28;20035;-77
2021/12/06 03:43:41;;;;;;;9.68;4.50;;;;;;;1.21;100.00;101215.69;5109480;28;20044;-77
2021/12/06 03:46:07;;;;;;;7.32;4.43;;;;;;;1.14;100.00;101198.56;5091770;28;20108;-77
2021/12/06 03:48:33;;;;;;;9.55;4.57;;;;;;;1.24;100.00;101231.31;5091580;28;20034;-77
2021/12/06 03:51:00;;;;;;;;;;;;;;;1.31;100.00;101233.56;5091977;28;20506;-77
2021/12/06 03:53:28;;;;;;;11.20;3.53;;;;;;;1.27;100.00;101236.38;5108209;28;20450;-77
2021/12/06 03:55:53;;;;;;;8.00;3.70;;;;;;;1.26;100.00;101239.97;5109042;28;20110;-77
2021/12/06 03:58:19;;;;;;;9.63;4.28;;;;;;;1.32;100.00;101248.44;5108403;28;20579;-77
2021/12/06 04:00:46;;;;;;;5.93;2.45;;;;;;;1.32;100.00;101254.53;5108325;28;20042;-76
2021/12/06 04:03:15;;;;;;;7.43;3.33;;;;;;;1.18;100.00;101230.81;5091458;28;20038;-77
2021/12/06 04:05:41;;;;;;;6.10;2.70;;;;;;;1.23;100.00;101245.38;5091200;28;20024;-77
2021/12/06 04:08:07;;;;;;;;;;;;;;;1.25;100.00;101232.16;5125804;27;20027;-77
2021/12/06 04:10:32;;;;;;;9.32;2.58;;;;;;;1.13;100.00;101222.34;5107481;28;20029;-77
2021/12/06 04:13:00;;;;;;;7.85;2.67;;;;;;;1.14;100.00;101227.50;5091160;28;20058;-77
2021/12/06 04:15:29;;;;;;;5.40;2.72;;;;;;;1.20;100.00;101239.47;5107922;28;20127;-77
2021/12/06 04:17:57;;;;;;;6.13;2.42;;;;;;;1.16;100.00;101228.28;5091063;28;20452;-77
2021/12/06 04:20:23;;;;;;;5.25;2.17;;;;;;;1.15;100.00;101226.59;5108304;28;20130;-77
2021/12/06 04:22:49;;;;;;;;;;;;;;;1.19;100.00;101238.59;5125695;27;20024;-77
2021/12/06 04:25:16;;;;;;;10.57;2.60;;;;;;;1.20;100.00;101235.06;5090782;28;19911;-77
2021/12/06 04:27:43;;;;;;;9.93;2.80;;;;;;;1.09;100.00;101219.03;5107913;28;20429;-77
2021/12/06 04:30:11;;;;;;;2.45;1.60;;;;;;;1.03;100.00;101212.38;5110657;28;20047;-77
2021/12/06 04:32:37;;;;;;;5.30;2.33;;;;;;;1.02;100.00;101215.09;5108317;28;20032;-77
2021/12/06 04:35:03;;;;;;;;;;;;;;;1.02;100.00;101225.59;5108173;28;20036;-77
2021/12/06 04:37:29;;;;;;;4.75;1.98;;;;;;;0.93;100.00;101207.72;5107214;28;20062;-77
2021/12/06 04:39:55;;;;;;;4.77;1.97;;;;;;;0.91;100.00;101213.06;5107598;28;20409;-77
2021/12/06 04:42:21;;;;;;;6.50;2.78;;;;;;;0.81;100.00;101202.25;5091148;28;20063;-76
2021/12/06 04:44:47;;;;;;;;;;;;;;;0.89;100.00;101225.47;5125124;28;20030;-76
2021/12/06 04:47:15;;;;;;;6.53;2.50;;;;;;;0.87;100.00;101224.72;5091062;28;20002;-76
2021/12/06 04:49:40;;;;;;;;;;;;;;;0.89;100.00;101225.47;5108364;28;20452;-76
2021/12/06 04:52:11;;;;;;;28.80;4.40;;;;;;;0.86;100.00;101216.91;5091005;28;19911;-76
2021/12/06 04:54:41;;;;;;;8.70;2.55;;;;;;;0.93;100.00;101236.66;5107262;28;20105;-76
2021/12/06 04:57:13;;;;;;;4.85;2.10;;;;;;;0.88;100.00;101217.66;5124711;27;20031;-76
2021/12/06 04:59:43;;;;;;;9.48;2.10;;;;;;;0.81;100.00;101218.00;5090746;28;20432;-76
2021/12/06 05:02:14;;;;;;;5.78;2.20;;;;;;;0.75;100.00;101213.13;5090828;28;20065;-76
2021/12/06 05:04:47;;;;;;;6.95;1.92;;;;;;;0.71;100.00;101222.13;5107202;28;20077;-76
2021/12/06 05:07:20;;;;;;;8.60;2.58;;;;;;;0.54;100.00;101195.94;5107588;28;20452;-76
2021/12/06 05:09:46;;;;;;;6.45;3.03;;;;;;;0.51;100.00;101217.13;5107495;28;20379;-76
2021/12/06 05:12:16;;;;;;;4.18;2.13;;;;;;;0.44;100.00;101214.00;5124634;28;20023;-76
2021/12/06 05:14:42;;;;;;;13.05;2.70;;;;;;;0.60;100.00;101250.78;5090353;28;20445;-76
2021/12/06 05:17:08;;;;;;;7.47;2.58;;;;;;;0.75;100.00;101270.94;5108240;28;20031;-76
2021/12/06 05:19:36;;;;;;;7.28;2.45;;;;;;;0.77;100.00;101274.34;5090755;28;20035;-76
2021/12/06 05:22:04;;;;;;;3.88;2.28;;;;;;;0.68;100.00;101258.22;5091275;28;20042;-76
2021/12/06 05:24:29;;;;;;;3.40;1.98;;;;;;;0.59;100.00;101255.19;5093994;28;20020;-76
2021/12/06 05:26:56;;;;;;;4.10;1.85;;;;;;;0.47;100.00;101234.00;5094264;28;20040;-76
2021/12/06 05:29:26;;;;;;;10.18;2.53;;;;;;;0.45;100.00;101235.88;5111039;28;20046;-76
2021/12/06 05:31:57;;;;;;;5.15;2.55;;;;;;;0.33;100.00;101226.91;5110697;28;20035;-76
2021/12/06 05:34:35;;;;;;;11.48;2.95;;;;;;;0.35;100.00;101233.75;5110342;28;20045;-76
2021/12/06 05:37:01;;;;;;;10.60;3.55;;;;;;;0.33;100.00;101229.53;5110592;28;20036;-76
2021/12/06 05:39:30;;;;;;;10.02;3.83;;;;;;;0.39;100.00;101235.25;5110351;28;20051;-76
2021/12/06 05:42:12;;;;;;;11.15;4.10;;;;;;;0.43;100.00;101248.25;5111295;28;20671;-75
2021/12/06 05:44:38;;;;;;;8.20;4.18;;;;;;;0.45;100.00;101249.03;5127490;27;20045;-76
2021/12/06 05:47:03;;;;;;;;;;;;;;;0.47;100.00;101255.88;5094240;28;20031;-75
2021/12/06 05:49:29;;;;;;;10.50;5.03;;;;;;;0.44;100.00;101245.53;5111839;28;20252;-76
2021/12/06 05:51:55;;;;;;;12.10;4.45;;;;;;;0.55;100.00;101263.31;5093874;28;20212;-75
2021/12/06 05:54:22;;;;;;;9.30;4.75;;;;;;;0.61;100.00;101271.72;5093287;28;20055;-75
2021/12/06 05:56:47;;;;;;;13.85;3.88;;;;;;;0.66;100.00;101268.84;5111530;28;20023;-76
2021/12/06 05:59:14;;;;;;;8.18;3.90;;;;;;;0.78;100.00;101276.03;5111645;28;20038;-75
2021/12/06 06:01:40;;;;;;;6.55;3.13;;;;;;;0.81;100.00;101275.00;5111580;28;20073;-76
2021/12/06 06:04:06;;;;;;;5.10;2.92;;;;;;;0.77;100.00;101261.19;5110222;28;20071;-75
2021/12/06 06:06:34;;;;;;;8.23;3.47;;;;;;;0.82;100.00;101266.19;5110393;28;20031;-74
2021/12/06 06:09:00;;;;;;;11.43;3.38;;;;;;;0.84;100.00;101272.19;5110259;28;20369;-75
2021/12/06 06:11:27;;;;;;;5.53;2.53;;;;;;;0.80;100.00;101252.28;5109869;28;20042;-74
2021/12/06 06:13:53;;;;;;;10.13;2.70;;;;;;;0.84;100.00;101253.78;5111188;28;20041;-75
2021/12/06 06:16:21;;;;;;;6.90;2.35;;;;;;;0.85;100.00;101250.25;5110257;28;20020;-75
2021/12/06 06:18:49;;;;;;;6.68;2.25;;;;;;;0.93;100.00;101252.44;5109956;28;20107;-74
2021/12/06 06:21:15;;;;;;;6.68;1.92;;;;;;;0.84;100.00;101233.63;5110141;28;20042;-74
2021/12/06 06:23:41;;;;;;;9.85;2.20;;;;;;;0.84;100.00;101236.25;5109671;28;20031;-74
2021/12/06 06:26:07;;;;;;;4.20;1.45;;;;;;;0.82;100.00;101219.72;5111018;28;20027;-75
2021/12/06 06:28:32;;;;;;;11.57;5.00;;;;;;;0.77;100.00;101223.53;5110042;28;20124;-75
2021/12/06 06:30:59;;;;;;;6.93;2.85;;;;;;;0.85;100.00;101231.84;5127301;27;20046;-75
2021/12/06 06:33:24;;;;;;;4.80;1.75;;;;;;;0.82;100.00;101234.66;5110575;28;20031;-75
2021/12/06 06:35:50;;;;;;;5.55;1.45;;;;;;;0.84;100.00;101243.28;5110212;28;20575;-75
2021/12/06 06:38:17;;;;;;;5.88;1.67;;;;;;;0.75;100.00;101235.91;5110741;28;20042;-75
2021/12/06 06:40:43;;;;;;;6.85;1.67;;;;;;;0.77;100.00;101234.91;5110048;28;20035;-75
2021/12/06 06:43:08;;;;;;;3.40;1.73;;;;;;;0.74;100.00;101229.81;5110801;28;20365;-75
2021/12/06 06:45:34;;;;;;;7.40;2.08;;;;;;;0.72;100.00;101236.09;5111574;27;20056;-76
2021/12/06 06:47:59;;;;;;;8.47;3.63;;;;;;;0.78;100.00;101233.97;5111006;28;20098;-75
2021/12/06 06:50:25;;;;;;;5.45;1.60;;;;;;;0.80;100.00;101237.38;5111834;28;20039;-76
2021/12/06 06:52:51;;;;;;;5.53;1.95;;;;;;;0.83;100.00;101231.91;5110568;28;20031;-75
2021/12/06 06:55:17;;;;;;;7.07;1.40;;;;;;;0.86;100.00;101227.44;5111367;28;20031;-76
2021/12/06 06:57:45;;;;;;;8.73;1.52;;;;;;;0.92;100.00;101241.06;5110553;28;20353;-77
2021/12/06 07:00:15;;;;;;;3.92;1.38;;;;;;;0.92;100.00;101240.22;5111555;28;20484;-77
2021/12/06 07:02:41;;;;;;;5.35;1.20;;;;;;;0.93;100.00;101236.66;5110707;28;20050;-77
2021/12/06 07:05:07;;;;;;;2.13;1.38;;;;;;;0.99;100.00;101245.03;5110160;28;20126;-76
2021/12/06 07:07:33;;;;;;;3.38;1.30;;;;;;;0.98;100.00;101231.97;5111260;28;20294;-76
2021/12/06 07:09:59;;;;;;;2.38;1.33;;;;;;;1.02;100.00;101230.88;5110413;28;20035;-77
2021/12/06 07:12:25;;;;;;;2.97;1.80;;;;;;;1.07;100.00;101228.81;5110376;28;20046;-76
2021/12/06 07:14:50;;;;;;;3.72;1.83;;;;;;;1.04;100.00;101242.97;5110101;28;20085;-76
2021/12/06 07:17:16;;;;;;;4.75;1.50;;;;;;;1.03;100.00;101233.41;5110248;28;20100;-76
2021/12/06 07:19:42;;;;;;;3.03;1.40;;;;;;;1.06;99.67;101229.75;5110369;28;20050;-76
2021/12/06 07:22:08;;;;;;;3.10;1.45;;;;;;;1.15;99.57;101239.75;5092996;28;20035;-76
2021/12/06 07:24:35;;;;;;;3.95;1.73;;;;;;;1.18;99.64;101234.28;5110917;27;20041;-77
2021/12/06 07:27:00;;;;;;;12.57;2.17;;;;;;;1.20;99.67;101244.72;5110154;28;20019;-76
2021/12/06 07:29:26;;;;;;;4.25;1.63;;;;;;;1.16;99.70;101249.31;5109603;28;20118;-76
2021/12/06 07:31:52;;;;;;;2.95;1.42;;;;;;;1.11;99.55;101238.22;5108932;28;20453;-77
2021/12/06 07:34:18;;;;;;;4.88;2.35;;;;;;;1.10;99.97;101247.06;5091481;28;20031;-77
2021/12/06 07:36:44;;;;;;;4.47;3.08;;;;;;;1.04;99.66;101244.78;5108407;28;20469;-76
2021/12/06 07:39:10;;;;;;;4.55;2.35;;;;;;;1.00;100.00;101249.34;5108899;28;20536;-76
2021/12/06 07:41:37;;;;;;;8.48;2.65;;;;;;;1.04;100.00;101253.50;5108682;28;20372;-76
2021/12/06 07:44:04;;;;;;;7.45;2.20;;;;;;;1.02;100.00;101258.00;5109354;28;20027;-76
2021/12/06 07:46:30;;;;;;;6.53;2.28;;;;;;;0.97;100.00;101259.22;5109758;28;20031;-76
2021/12/06 07:48:55;;;;;;;10.13;1.98;;;;;;;0.97;100.00;101265.31;5109753;28;20536;-76
2021/12/06 07:51:22;;;;;;;5.28;2.17;;;;;;;0.95;100.00;101263.72;5109620;28;20042;-76
2021/12/06 07:53:48;;;;;;;7.38;2.90;;;;;;;0.95;100.00;101277.69;5109153;28;20047;-74
2021/12/06 07:56:14;;;;;;;6.55;1.98;;;;;;;0.95;100.00;101272.44;5110546;28;20091;-75
2021/12/06 07:58:39;;;;;;;9.45;2.45;;;;;;;1.00;100.00;101294.03;5109339;28;20023;-75
2021/12/06 08:01:05;;;;;;;9.60;3.65;;;;;;;1.00;100.00;101291.41;5110405;28;20952;-76
2021/12/06 08:03:31;;;;;;;18.42;3.50;;;;;;;0.98;100.00;101293.31;5109953;28;20551;-75
2021/12/06 08:05:58;;;;;;;11.82;2.85;;;;;;;1.03;100.00;101291.25;5110142;28;20108;-75
2021/12/06 08:08:27;;;;;;;7.80;2.28;;;;;;;0.91;100.00;101270.06;5109293;28;20019;-75
2021/12/06 08:10:59;;;;;;;8.00;2.50;;;;;;;0.98;100.00;101280.16;5109385;28;20192;-76
2021/12/06 08:13:28;;;;;;;10.18;3.40;;;;;;;1.00;100.00;101273.00;5109212;28;20045;-75
2021/12/06 08:15:57;;;;;;;5.43;2.83;;;;;;;1.00;100.00;101274.81;5092224;28;20567;-75
2021/12/06 08:18:22;;;;;;;9.48;2.35;;;;;;;1.02;100.00;101267.69;5109157;28;20468;-75
2021/12/06 08:20:48;;;;;;;6.88;2.33;;;;;;;1.05;100.00;101272.75;5109204;28;20032;-75
2021/12/06 08:23:15;;;;;;;5.10;2.45;;;;;;;1.08;100.00;101276.97;5109105;28;20583;-75
2021/12/06 08:25:42;;;;;;;6.63;2.53;;;;;;;1.08;100.00;101272.59;5110025;28;20028;-75
2021/12/06 08:28:07;;;;;;;8.88;2.97;;;;;;;0.99;100.00;101260.81;5109051;28;20115;-75
2021/12/06 08:30:34;;;;;;;10.07;2.08;;;;;;;1.09;100.00;101263.75;5109839;28;20508;-75
2021/12/06 08:33:03;;;;;;;6.25;2.15;;;;;;;1.06;100.00;101263.94;5111217;28;20050;-75
2021/12/06 08:35:28;;;;;;;4.05;1.73;;;;;;;1.02;100.00;101244.84;5112782;28;20053;-75
2021/12/06 08:37:58;;;;;;;7.40;2.75;;;;;;;1.10;100.00;101256.69;5108886;28;20035;-75
2021/12/06 08:40:25;;;;;;;5.60;2.13;;;;;;;1.16;100.00;101253.72;5109846;28;20378;-75
2021/12/06 08:42:50;;;;;;;5.40;2.13;;;;;;;1.15;99.98;101244.16;5108508;28;20043;-75
2021/12/06 08:45:16;;;;;;;7.15;1.80;;;;;;;1.14;99.68;101237.19;5107099;28;20050;-75
2021/12/06 08:47:42;;;;;;;4.18;1.95;;;;;;;1.09;99.52;101237.47;5108736;28;20345;-75
2021/12/06 08:50:11;;;;;;;;;;;;;;;1.08;99.50;101238.41;5109158;28;20051;-76
2021/12/06 08:52:37;;;;;;;4.53;1.38;;;;;;;1.12;99.04;101232.00;5108528;28;19962;-75
2021/12/06 08:55:05;;;;;;;3.42;1.52;;;;;;;1.10;98.53;101212.88;5108206;28;20038;-75
2021/12/06 08:57:30;;;;;;;3.75;1.50;;;;;;;1.11;97.86;101204.03;5110084;28;20062;-76
2021/12/06 08:59:56;;;;;;;9.55;2.47;;;;;;;1.12;97.74;101187.28;5111828;28;20035;-75
2021/12/06 09:02:23;;;;;;;6.05;1.75;;;;;;;1.11;97.49;101190.03;5128858;27;20524;-75
2021/12/06 09:04:48;;;;;;;4.15;1.48;;;;;;;1.15;97.05;101179.25;5111410;28;20118;-75
2021/12/06 09:07:14;;;;;;;3.05;1.10;;;;;;;1.09;97.26;101170.88;5112905;28;20110;-76
2021/12/06 09:09:49;;;;;;;3.63;1.70;;;;;;;1.07;97.01;101170.94;5111662;28;20039;-75
2021/12/06 09:12:21;;;;;;;3.25;1.80;;;;;;;1.07;97.15;101164.84;5112561;28;20032;-75
2021/12/06 09:14:48;;;;;;;4.35;1.48;;;;;;;0.98;97.32;101156.59;5112350;28;20067;-76
2021/12/06 09:17:14;;;;;;;6.93;2.35;;;;;;;1.19;97.57;101188.63;5094510;28;20381;-76
2021/12/06 09:19:40;;;;;;;8.73;1.88;;;;;;;1.23;97.62;101198.03;5094403;28;20548;-76
2021/12/06 09:22:06;;;;;;;3.92;1.40;;;;;;;1.14;97.04;101181.97;5112341;28;20063;-75
2021/12/06 09:24:32;;;;;;;4.20;1.48;;;;;;;1.22;97.40;101196.34;5111125;28;20043;-76
2021/12/06 09:26:58;;;;;;;3.17;1.30;;;;;;;1.16;97.03;101185.34;5112262;28;20027;-76
2021/12/06 09:29:24;;;;;;;1.58;1.30;;;;;;;1.47;96.73;101216.78;5111372;28;20028;-76
2021/12/06 09:31:52;;;;;;;3.65;1.67;;;;;;;1.64;96.22;101215.75;5111360;28;20567;-75
2021/12/06 09:34:18;;;;;;;2.97;1.40;;;;;;;1.84;95.44;101201.34;5110818;28;20054;-76
2021/12/06 09:36:44;;;;;;;1.73;1.10;;;;;;;1.94;95.13;101217.44;5110373;28;20374;-76
2021/12/06 09:39:11;;;;;;;1.90;1.48;;;;;;;1.76;95.09;101193.09;5112324;28;20142;-77
2021/12/06 09:41:37;;;;;;;3.40;1.73;;;;;;;1.92;94.71;101200.03;5127912;27;20039;-76
2021/12/06 09:44:05;;;;;;;4.97;1.20;;;;;;;1.93;94.55;101194.69;5111647;28;20043;-76
2021/12/06 09:46:35;;;;;;;7.93;2.65;;;;;;;2.13;94.04;101192.56;5093938;28;20035;-77
2021/12/06 09:49:07;;;;;;;4.90;1.67;;;;;;;2.11;94.02;101206.69;5111848;28;20463;-76
2021/12/06 09:51:34;;;;;;;7.82;2.15;;;;;;;2.03;94.01;101179.97;5110789;28;20051;-76
2021/12/06 09:53:59;;;;;;;6.90;1.50;;;;;;;2.14;93.91;101189.00;5110653;28;20039;-77
2021/12/06 09:56:33;;;;;;;7.03;1.58;;;;;;;1.86;93.96;101156.50;5110411;28;20039;-76
2021/12/06 09:59:02;;;;;;;4.10;1.65;;;;;;;2.08;94.28;101193.72;5109650;28;20046;-76
2021/12/06 10:01:33;;;;;;;5.47;2.20;;;;;;;1.71;94.57;101162.72;5110674;28;20032;-76
2021/12/06 10:04:00;;;;;;;4.53;2.00;;;;;;;1.69;94.97;101189.16;5110185;28;20114;-76
2021/12/06 10:06:30;;;;;;;3.55;1.48;;;;;;;1.65;95.13;101203.44;5111338;28;20522;-77
2021/12/06 10:08:59;;;;;;;6.18;1.73;;;;;;;1.65;94.87;101193.75;5109094;28;20388;-77
2021/12/06 10:11:26;;;;;;;4.82;1.73;;;;;;;1.71;94.64;101179.38;5110783;28;20398;-77
2021/12/06 10:13:53;;;;;;;6.18;2.47;;;;;;;1.86;94.68;101188.09;5109537;28;20437;-77
2021/12/06 10:16:19;;;;;;;6.78;1.80;;;;;;;1.79;93.92;101169.22;5110975;28;20027;-77
2021/12/06 10:18:45;;;;;;;5.93;1.55;;;;;;;1.75;93.64;101145.81;5110728;28;20063;-77
2021/12/06 10:21:12;;;;;;;3.83;1.80;;;;;;;2.00;93.25;101177.56;5110949;28;20034;-77
2021/12/06 10:23:39;;;;;;;6.05;2.35;;;;;;;2.13;93.27;101188.19;5092658;28;20062;-78
2021/12/06 10:26:06;;;;;;;5.22;2.05;;;;;;;2.03;93.34;101166.81;5109013;28;20098;-78
2021/12/06 10:28:34;;;;;;;3.58;1.90;;;;;;;1.82;93.08;101155.00;5106722;28;20398;-77
2021/12/06 10:31:03;;;;;;;7.55;1.95;;;;;;;1.86;93.26;101164.41;5109693;27;20072;-77
2021/12/06 10:33:33;;;;;;;7.30;1.98;;;;;;;1.82;93.02;101158.47;5091601;28;20027;-77
2021/12/06 10:36:03;;;;;;;3.50;1.80;;;;;;;1.94;93.18;101174.44;5108678;28;20095;-77
2021/12/06 10:38:36;;;;;;;5.78;1.83;;;;;;;1.87;93.04;101161.69;5114145;27;20138;-77
2021/12/06 10:41:12;;;;;;;5.03;1.33;;;;;;;1.60;93.14;101142.34;5108165;28;20027;-77
2021/12/06 10:43:40;;;;;;;2.38;1.60;;;;;;;1.86;93.22;101169.69;5109294;28;20043;-77
2021/12/06 10:46:07;;;;;;;3.20;1.20;;;;;;;1.99;93.26;101173.25;5108462;28;20177;-76
2021/12/06 10:48:37;;;;;;;3.05;1.67;;;;;;;1.98;92.68;101147.81;5109993;28;20035;-77
2021/12/06 10:51:10;;;;;;;2.70;1.30;;;;;;;1.74;92.24;101123.91;5109064;28;20118;-77
2021/12/06 10:53:55;;;;;;;3.50;1.42;;;;;;;1.57;92.22;101108.31;5108708;28;20429;-77
2021/12/06 10:56:25;;;;;;;3.10;1.50;;;;;;;1.76;92.22;101131.72;5109847;28;20468;-77
2021/12/06 10:58:54;;;;;;;4.22;1.30;;;;;;;1.67;92.08;101112.91;5108922;28;20035;-77
2021/12/06 11:01:28;;;;;;;4.78;1.17;;;;;;;1.67;92.05;101093.66;5091499;28;20373;-78
2021/12/06 11:03:56;;;;;;;6.13;1.50;;;;;;;1.95;91.88;101126.97;5092100;28;20031;-77
2021/12/06 11:06:27;;;;;;;2.60;1.50;;;;;;;2.08;91.24;101109.44;5108566;28;20115;-77
2021/12/06 11:08:55;;;;;;;4.13;1.70;;;;;;;2.02;90.73;101080.84;5110057;28;20038;-77
2021/12/06 11:11:42;;;;;;;4.75;1.70;;;;;;;2.11;91.01;101109.25;5109618;28;20357;-77
2021/12/06 11:14:12;;;;;;;1.48;1.05;;;;;;;1.83;90.34;101052.25;5092041;28;20035;-78
2021/12/06 11:16:46;;;;;;;5.95;1.50;;;;;;;2.39;90.37;101109.22;5108947;28;20036;-78
2021/12/06 11:19:16;;;;;;;2.63;1.30;;;;;;;2.23;90.40;101083.06;5092283;28;20590;-79
2021/12/06 11:21:42;;;;;;;3.90;1.40;;;;;;;1.82;90.98;101060.22;5107725;28;20040;-78
2021/12/06 11:24:20;;;;;;;3.13;1.80;;;;;;;2.22;91.46;101124.34;5108573;28;20047;-79
2021/12/06 11:26:49;;;;;;;2.85;1.95;;;;;;;2.64;90.49;101121.63;5109966;28;20046;-77
2021/12/06 11:29:19;;;;;;;4.18;1.55;;;;;;;2.73;89.78;101113.09;5109643;28;20039;-78
2021/12/06 11:32:00;;;;;;;5.20;2.53;;;;;;;2.51;89.40;101076.78;5109073;28;20031;-78
2021/12/06 11:34:30;;;;;;;3.15;1.80;;;;;;;2.86;89.16;101100.78;5109408;28;20047;-77
2021/12/06 11:36:56;;;;;;;3.03;2.00;;;;;;;2.22;88.83;101026.00;5091173;28;20043;-77
2021/12/06 11:39:23;;;;;;;4.18;2.22;;;;;;;2.41;89.05;101071.31;5109714;28;20467;-77
2021/12/06 11:41:58;;;;;;;4.00;2.13;;;;;;;1.92;89.18;101016.56;5109185;28;20096;-77
2021/12/06 11:44:32;;;;;;;4.90;2.28;;;;;;;2.04;89.75;101070.22;5091429;28;20035;-77
2021/12/06 11:47:19;;;;;;;3.15;1.85;;;;;;;2.53;89.28;101109.19;5091298;28;20069;-78
2021/12/06 11:49:56;;;;;;;3.95;2.47;;;;;;;2.72;88.66;101085.91;5109208;28;20043;-78